Terminal Aerodrome Forecast
Issued by NWS Tulsa, OK

Home | Current Version | Previous Version | Text Only | Print | Product List | Glossary On
Versions: 1 2 3 4 5 6 7 8 9 10 11 12 13 14 15 16
000
FTUS44 KTSA 031120
TAFFSM
TAF
KFSM 031120Z 0312/0412 27011KT P6SM VCTS SCT025 BKN060CB
      TEMPO 0312/0314 2SM -TSRA BR SCT015 BKN025CB
     FM031800 24010KT P6SM VCTS BKN035CB PROB30 0321/0403 5SM -TSRA
      BKN030CB
     FM040300 VRB02KT P6SM BKN050=

USA.gov is the U.S. government's official web portal to all federal, state and local government web resources and services.